Pagrindinis puslapis
METAR-TAF:

METAR-TAF

Oro uostai :

Frederick, Oklahoma, Jungtinės Amerikos Valstijos

platuma: 34-20-40N, ilguma: 098-58-59W, Aukštis: 382 m

Dabartinis oras

Ataskaita buvo paskelbta 9 minutes, ne 00:53 UTC
Vėjas 15 kt iš Pietų su gūsio iki 23 kt
Temperatūra 34°C
Drėgmė 44%
Slėgis 1009 hPa
Matomumas: 16.1 km
Giedras dangus

METAR: KFDR 250053Z AUTO 17015G23KT 10SM CLR 34/20 A2980 RMK AO2 SLP067 T03440200

Laikas: 20:02 (01:02 UTC)


TAF: trūkstamas

Orai ataskaitas ir orų prognozės (METAR, TAF).

turimą stotys yra geltonos ir raudonos taškus žemėlapyje.

Perkelti pele per norėdami pamatyti stoties vardą.

Tada spustelėkite, norėdami matyti oro stebėjimo ir prognozės.

Norėdami pakeisti žemėlapį: spustelėkite ant žalios mygtukų su juodo kryžiaus žemyn,; žalią mygtuką su brūkšneliu, jei norite nutolinti; arba žalių rodyklių gretimoms žemėlapius.


METAR-TAF: